createdAt,value
2023-04-19T00:01:13.692Z,5.27
2023-04-19T00:06:16.389Z,5.63
2023-04-19T00:11:18.755Z,5.30
2023-04-19T00:16:21.763Z,5.63
2023-04-19T00:21:24.075Z,5.20
2023-04-19T00:26:26.567Z,4.83
2023-04-19T00:31:29.001Z,5.63
2023-04-19T00:36:32.743Z,4.97
2023-04-19T00:41:35.095Z,5.13
2023-04-19T00:46:40.180Z,5.00
2023-04-19T00:51:42.962Z,5.43
2023-04-19T00:56:46.561Z,4.40
2023-04-19T01:01:49.005Z,5.30
2023-04-19T01:06:51.719Z,4.97
2023-04-19T01:11:54.668Z,4.80
2023-04-19T01:16:57.981Z,5.50
2023-04-19T01:22:03.452Z,4.87
2023-04-19T01:27:09.156Z,5.07
2023-04-19T01:32:13.396Z,5.57
2023-04-19T01:37:15.815Z,4.87
2023-04-19T01:42:18.148Z,4.63
2023-04-19T01:47:20.481Z,5.00
2023-04-19T01:52:24.138Z,5.80
2023-04-19T01:57:26.482Z,5.43
2023-04-19T02:02:29.016Z,4.63
2023-04-19T02:07:31.374Z,4.93
2023-04-19T02:12:34.897Z,5.70
2023-04-19T02:17:39.262Z,5.17
2023-04-19T02:22:41.956Z,4.80
2023-04-19T02:27:46.683Z,5.23
2023-04-19T02:32:49.914Z,6.70
2023-04-19T02:37:52.272Z,4.93
2023-04-19T02:42:54.566Z,4.80
2023-04-19T02:47:57.325Z,4.53
2023-04-19T02:53:03.009Z,4.53
2023-04-19T02:58:06.794Z,6.00
2023-04-19T03:03:15.025Z,4.77
2023-04-19T03:08:17.848Z,4.60
2023-04-19T03:13:21.339Z,4.73
2023-04-19T03:18:23.985Z,4.53
2023-04-19T03:23:28.637Z,5.40
2023-04-19T03:28:34.143Z,5.87
2023-04-19T03:33:55.290Z,4.27
2023-04-19T03:39:04.505Z,5.30
2023-04-19T03:44:06.958Z,5.30
2023-04-19T03:49:09.594Z,5.00
2023-04-19T03:54:13.018Z,4.67
2023-04-19T03:59:15.610Z,4.60
2023-04-19T04:04:19.022Z,5.50
2023-04-19T04:09:21.978Z,5.17
2023-04-19T04:14:24.993Z,4.53
2023-04-19T04:19:27.438Z,4.57
2023-04-19T04:24:33.196Z,4.43
2023-04-19T04:29:53.538Z,4.77
2023-04-19T04:34:59.104Z,5.30
2023-04-19T04:40:11.933Z,5.47
2023-04-19T04:45:14.338Z,5.10
2023-04-19T04:50:19.105Z,4.90
2023-04-19T04:55:23.882Z,5.23
2023-04-19T05:00:26.996Z,6.90
2023-04-19T05:05:34.886Z,4.53
2023-04-19T05:10:37.354Z,5.00
2023-04-19T05:15:40.154Z,5.27
2023-04-19T05:20:44.325Z,6.10
2023-04-19T05:25:53.078Z,4.93
2023-04-19T05:30:58.170Z,4.83
2023-04-19T05:36:05.764Z,4.67
2023-04-19T05:41:08.828Z,4.70
2023-04-19T05:46:11.308Z,5.23
2023-04-19T05:51:14.637Z,4.37
2023-04-19T05:56:37.184Z,5.60
2023-04-19T06:01:39.933Z,4.47
2023-04-19T06:06:42.407Z,4.27
2023-04-19T06:11:50.655Z,4.03
2023-04-19T06:16:53.790Z,5.43
2023-04-19T06:21:56.226Z,3.10
2023-04-19T06:26:58.637Z,3.53
2023-04-19T06:32:01.083Z,4.67
2023-04-19T06:37:04.194Z,3.67
2023-04-19T06:42:06.739Z,4.63
2023-04-19T06:47:09.331Z,3.90
2023-04-19T06:52:14.608Z,3.80
2023-04-19T06:57:17.611Z,3.80
2023-04-19T07:02:20.114Z,4.63
2023-04-19T07:07:22.681Z,3.60
2023-04-19T07:12:25.044Z,4.17
2023-04-19T07:17:27.454Z,4.10
2023-04-19T07:22:29.980Z,3.27
2023-04-19T07:27:32.413Z,3.90
2023-04-19T07:32:34.940Z,3.93
2023-04-19T07:37:40.686Z,3.97
2023-04-19T07:42:43.869Z,4.60
2023-04-19T07:47:46.614Z,3.53
2023-04-19T07:52:48.957Z,4.20
2023-04-19T07:57:51.253Z,4.13
2023-04-19T08:02:53.822Z,3.87
2023-04-19T08:07:57.208Z,3.77
2023-04-19T08:13:05.677Z,3.10
2023-04-19T08:18:08.584Z,2.95
2023-04-19T08:23:21.332Z,4.03
2023-04-19T08:28:25.080Z,2.93
2023-04-19T08:33:29.280Z,3.60
2023-04-19T08:38:31.797Z,4.07
2023-04-19T08:43:36.374Z,3.70
2023-04-19T08:48:38.956Z,3.50
2023-04-19T08:53:41.774Z,3.30
2023-04-19T08:58:58.006Z,3.20
2023-04-19T09:09:34.049Z,3.77
2023-04-19T09:14:57.803Z,3.20
2023-04-19T09:20:06.119Z,3.87
2023-04-19T09:30:24.042Z,3.47
2023-04-19T09:35:48.765Z,4.85
2023-04-19T09:40:51.283Z,3.13
2023-04-19T09:45:53.645Z,3.27
2023-04-19T09:51:05.477Z,4.97
2023-04-19T09:56:13.104Z,3.50
2023-04-19T10:01:17.126Z,3.87
2023-04-19T10:11:27.746Z,4.63
2023-04-19T10:16:31.573Z,3.43
2023-04-19T10:21:34.740Z,4.60
2023-04-19T10:27:03.397Z,3.27
2023-04-19T10:32:14.193Z,4.40
2023-04-19T10:37:16.746Z,3.60
2023-04-19T10:42:19.387Z,3.57
2023-04-19T10:47:46.735Z,3.80
2023-04-19T10:52:49.194Z,4.20
2023-04-19T10:58:07.531Z,4.87
2023-04-19T11:03:44.353Z,3.87
2023-04-19T11:08:47.490Z,3.77
2023-04-19T11:13:49.952Z,3.93
2023-04-19T11:18:52.206Z,3.60
2023-04-19T11:24:10.313Z,3.23
2023-04-19T11:29:13.185Z,4.43
2023-04-19T11:34:15.949Z,3.97
2023-04-19T11:39:19.144Z,4.27
2023-04-19T11:44:21.926Z,4.47
2023-04-19T11:49:32.014Z,3.53
2023-04-19T11:54:34.466Z,3.80
2023-04-19T11:59:37.318Z,3.40
2023-04-19T12:04:40.470Z,3.90
2023-04-19T12:09:42.873Z,3.97
2023-04-19T12:14:53.121Z,3.50
2023-04-19T12:19:55.559Z,4.20
2023-04-19T12:24:58.014Z,4.03
2023-04-19T12:30:03.373Z,3.50
2023-04-19T12:35:07.477Z,4.00
2023-04-19T12:40:10.548Z,2.97
2023-04-19T12:45:13.850Z,3.70
2023-04-19T12:50:16.704Z,4.77
2023-04-19T12:55:19.145Z,4.40
2023-04-19T13:00:22.550Z,3.43
2023-04-19T13:05:25.140Z,3.00
2023-04-19T13:10:27.642Z,4.13
2023-04-19T13:15:30.164Z,4.13
2023-04-19T13:20:32.534Z,3.47
2023-04-19T13:25:34.866Z,4.17
2023-04-19T13:30:37.192Z,4.03
2023-04-19T13:35:39.640Z,3.30
2023-04-19T13:40:41.968Z,3.73
2023-04-19T13:45:44.254Z,3.87
2023-04-19T13:50:46.593Z,4.30
2023-04-19T13:55:49.264Z,3.30
2023-04-19T14:00:52.577Z,3.43
2023-04-19T14:05:55.261Z,3.00
2023-04-19T14:10:57.615Z,4.13
2023-04-19T14:16:00.081Z,3.20
2023-04-19T14:21:02.513Z,3.53
2023-04-19T14:26:04.885Z,3.10
2023-04-19T14:31:07.307Z,3.50
2023-04-19T14:36:09.787Z,3.43
2023-04-19T14:41:12.276Z,3.60
2023-04-19T14:46:14.627Z,2.90
2023-04-19T14:51:17.071Z,3.00
2023-04-19T14:56:19.493Z,3.10
2023-04-19T15:01:23.627Z,2.53
2023-04-19T15:06:26.061Z,3.60
2023-04-19T15:11:28.406Z,3.90
2023-04-19T15:16:31.000Z,3.10
2023-04-19T15:21:33.497Z,3.27
2023-04-19T15:26:36.311Z,3.47
2023-04-19T15:31:38.996Z,2.57
2023-04-19T15:36:41.666Z,2.97
2023-04-19T15:41:44.035Z,2.97
2023-04-19T15:46:46.615Z,2.87
2023-04-19T15:51:49.037Z,3.17
2023-04-19T15:56:51.490Z,2.80
2023-04-19T16:01:53.888Z,4.17
2023-04-19T16:06:56.436Z,2.57
2023-04-19T16:11:58.846Z,3.93
2023-04-19T16:17:01.508Z,3.30
2023-04-19T16:22:05.757Z,4.10
2023-04-19T16:27:08.131Z,3.20
2023-04-19T16:32:11.125Z,3.50
2023-04-19T16:37:16.333Z,3.80
2023-04-19T16:42:18.750Z,2.93
2023-04-19T16:47:22.228Z,4.23
2023-04-19T16:52:29.501Z,6.07
2023-04-19T16:57:32.244Z,5.57
2023-04-19T17:02:34.861Z,5.40
2023-04-19T17:07:37.407Z,5.50
2023-04-19T17:12:39.942Z,4.23
2023-04-19T17:17:43.166Z,5.93
2023-04-19T17:22:45.664Z,6.20
2023-04-19T17:27:48.134Z,8.53
2023-04-19T17:32:51.511Z,6.37
2023-04-19T17:37:53.996Z,5.70
2023-04-19T17:42:56.450Z,5.33
2023-04-19T17:47:58.839Z,5.90
2023-04-19T17:53:01.394Z,8.10
2023-04-19T17:58:03.893Z,7.27
2023-04-19T18:03:07.452Z,8.17
2023-04-19T18:08:10.295Z,10.47
2023-04-19T18:13:12.817Z,10.10
2023-04-19T18:18:15.335Z,11.53
2023-04-19T18:23:17.813Z,11.47
2023-04-19T18:28:20.221Z,10.37
2023-04-19T18:33:22.769Z,10.83
2023-04-19T18:38:25.433Z,10.50
2023-04-19T18:43:31.757Z,10.67
2023-04-19T18:48:34.175Z,13.53
2023-04-19T18:53:36.755Z,13.43
2023-04-19T18:58:39.089Z,14.30
2023-04-19T19:04:07.727Z,17.43
2023-04-19T19:09:04.312Z,19.43
2023-04-19T19:14:06.651Z,21.43
2023-04-19T19:19:09.366Z,24.37
2023-04-19T19:24:11.893Z,27.57
2023-04-19T19:29:16.313Z,31.87
2023-04-19T19:34:27.172Z,33.23
2023-04-19T19:39:32.801Z,35.87
2023-04-19T19:44:35.229Z,36.60
2023-04-19T19:54:43.072Z,37.53
2023-04-19T19:59:51.724Z,34.93
2023-04-19T20:04:57.715Z,31.47
2023-04-19T20:10:00.340Z,31.07
2023-04-19T20:15:03.471Z,30.20
2023-04-19T20:20:11.712Z,35.37
2023-04-19T20:25:14.194Z,30.47
2023-04-19T20:30:16.655Z,27.80
2023-04-19T20:35:19.208Z,29.00
2023-04-19T20:40:23.305Z,28.20
2023-04-19T20:45:26.231Z,22.93
2023-04-19T20:50:30.610Z,20.57
2023-04-19T20:55:32.930Z,17.83
2023-04-19T21:00:35.317Z,18.73
2023-04-19T21:05:37.667Z,19.50
2023-04-19T21:10:39.998Z,18.77
2023-04-19T21:15:42.395Z,19.03
2023-04-19T21:20:45.002Z,19.40
2023-04-19T21:25:47.310Z,16.43
2023-04-19T21:30:49.706Z,12.60
2023-04-19T21:35:52.104Z,12.50
2023-04-19T21:40:54.507Z,9.03
2023-04-19T21:45:56.856Z,8.37
2023-04-19T21:50:59.183Z,8.30
2023-04-19T21:56:03.160Z,8.00
2023-04-19T22:01:05.534Z,7.77
2023-04-19T22:06:08.846Z,7.50
2023-04-19T22:11:12.302Z,7.87
2023-04-19T22:16:15.330Z,6.03
2023-04-19T22:21:17.625Z,6.53
2023-04-19T22:26:21.468Z,6.47
2023-04-19T22:31:23.801Z,6.83
2023-04-19T22:36:26.599Z,6.13
2023-04-19T22:41:29.139Z,5.77
2023-04-19T22:46:31.505Z,5.40
2023-04-19T22:51:36.999Z,5.97
2023-04-19T22:56:39.774Z,5.60
2023-04-19T23:01:43.411Z,6.33
2023-04-19T23:06:45.894Z,5.20
2023-04-19T23:11:48.171Z,5.60
2023-04-19T23:16:50.515Z,5.73
2023-04-19T23:21:52.801Z,6.03
2023-04-19T23:26:55.126Z,6.77
2023-04-19T23:31:58.168Z,5.10
2023-04-19T23:37:00.709Z,6.07
2023-04-19T23:42:03.415Z,5.67
2023-04-19T23:47:05.942Z,5.27
2023-04-19T23:52:08.278Z,5.23
2023-04-19T23:57:10.531Z,6.67
